createdAt,value
2022-12-13T00:02:57.788Z,47.90
2022-12-13T00:08:13.393Z,47.70
2022-12-13T00:13:28.429Z,47.90
2022-12-13T00:18:43.694Z,47.80
2022-12-13T00:23:59.366Z,47.60
2022-12-13T00:29:14.141Z,47.50
2022-12-13T00:34:29.642Z,47.50
2022-12-13T00:39:45.339Z,47.80
2022-12-13T00:45:00.321Z,47.40
2022-12-13T00:50:15.365Z,47.20
2022-12-13T00:55:31.583Z,47.20
2022-12-13T01:00:47.394Z,47.20
2022-12-13T01:06:14.705Z,47.20
2022-12-13T01:11:30.418Z,47.20
2022-12-13T01:16:45.542Z,47.00
2022-12-13T01:22:01.718Z,46.80
2022-12-13T01:27:18.384Z,46.90
2022-12-13T01:32:33.394Z,46.90
2022-12-13T01:37:48.401Z,47.10
2022-12-13T01:43:03.441Z,46.90
2022-12-13T01:48:30.384Z,46.70
2022-12-13T01:53:45.722Z,46.60
2022-12-13T01:59:01.680Z,46.50
2022-12-13T02:04:17.341Z,46.50
2022-12-13T02:09:32.339Z,46.40
2022-12-13T02:14:47.670Z,46.60
2022-12-13T02:20:04.457Z,46.70
2022-12-13T02:25:19.332Z,46.80
2022-12-13T02:30:35.418Z,46.80
2022-12-13T02:35:52.896Z,46.60
2022-12-13T02:41:08.384Z,46.60
2022-12-13T02:46:23.465Z,46.60
2022-12-13T02:51:38.407Z,46.80
2022-12-13T02:56:53.581Z,46.60
2022-12-13T03:02:10.621Z,46.50
2022-12-13T03:07:26.361Z,46.70
2022-12-13T03:12:41.435Z,46.80
2022-12-13T03:17:56.450Z,46.40
2022-12-13T03:23:12.392Z,46.40
2022-12-13T03:28:27.383Z,46.60
2022-12-13T03:33:42.339Z,46.50
2022-12-13T03:38:57.327Z,46.20
2022-12-13T03:44:12.392Z,46.30
2022-12-13T03:49:27.737Z,46.50
2022-12-13T03:54:51.531Z,46.40
2022-12-13T04:00:07.353Z,46.20
2022-12-13T04:05:22.411Z,46.60
2022-12-13T04:10:37.369Z,46.80
2022-12-13T04:15:52.414Z,46.70
2022-12-13T04:21:07.488Z,46.50
2022-12-13T04:26:22.386Z,46.50
2022-12-13T04:31:37.506Z,46.20
2022-12-13T04:36:52.337Z,46.70
2022-12-13T04:42:07.411Z,46.70
2022-12-13T04:47:22.608Z,45.90
2022-12-13T04:52:38.434Z,45.90
2022-12-13T04:57:53.405Z,45.60
2022-12-13T05:03:09.366Z,45.60
2022-12-13T05:08:24.566Z,45.50
2022-12-13T05:13:40.376Z,45.40
2022-12-13T05:18:55.391Z,45.40
2022-12-13T05:24:10.383Z,45.20
2022-12-13T05:29:25.692Z,45.80
2022-12-13T05:34:41.423Z,45.10
2022-12-13T05:39:56.349Z,45.00
2022-12-13T05:45:11.354Z,45.00
2022-12-13T05:50:26.641Z,45.00
2022-12-13T05:55:42.329Z,44.90
2022-12-13T06:00:57.404Z,44.90
2022-12-13T06:06:12.733Z,44.80
2022-12-13T06:11:31.978Z,44.80
2022-12-13T06:16:49.466Z,44.80
2022-12-13T06:22:04.722Z,44.70
2022-12-13T06:27:20.404Z,44.70
2022-12-13T06:32:37.194Z,44.70
2022-12-13T06:37:55.405Z,44.70
2022-12-13T06:43:17.477Z,44.60
2022-12-13T06:48:32.437Z,44.60
2022-12-13T06:53:47.481Z,44.50
2022-12-13T06:59:02.523Z,44.50
2022-12-13T07:04:29.455Z,44.50
2022-12-13T07:09:45.363Z,44.40
2022-12-13T07:15:00.359Z,44.40
2022-12-13T07:20:15.741Z,44.30
2022-12-13T07:25:31.393Z,44.30
2022-12-13T07:30:46.481Z,44.30
2022-12-13T07:36:01.437Z,44.30
2022-12-13T07:41:23.949Z,44.20
2022-12-13T07:46:42.222Z,44.20
2022-12-13T07:51:57.101Z,44.20
2022-12-13T07:57:12.474Z,44.10
2022-12-13T08:02:28.529Z,44.10
2022-12-13T08:07:43.375Z,44.10
2022-12-13T08:12:58.394Z,44.10
2022-12-13T08:18:13.419Z,44.10
2022-12-13T08:23:28.361Z,44.00
2022-12-13T08:28:43.391Z,44.00
2022-12-13T08:33:59.391Z,44.00
2022-12-13T08:39:52.106Z,44.00
2022-12-13T08:45:07.763Z,44.00
2022-12-13T08:50:23.418Z,44.00
2022-12-13T08:55:38.700Z,44.00
2022-12-13T09:00:54.838Z,43.90
2022-12-13T09:06:10.455Z,43.90
2022-12-13T09:11:32.924Z,43.80
2022-12-13T09:16:50.588Z,43.80
2022-12-13T09:22:06.352Z,43.70
2022-12-13T09:27:29.445Z,43.70
2022-12-13T09:32:44.870Z,43.70
2022-12-13T09:38:00.383Z,43.70
2022-12-13T09:43:22.945Z,43.60
2022-12-13T09:48:48.163Z,43.60
2022-12-13T09:54:07.620Z,43.60
2022-12-13T09:59:23.728Z,43.60
2022-12-13T10:04:39.368Z,43.50
2022-12-13T10:09:54.353Z,43.50
2022-12-13T10:15:09.733Z,43.40
2022-12-13T10:20:25.498Z,43.30
2022-12-13T10:25:40.477Z,43.30
2022-12-13T10:30:55.452Z,43.30
2022-12-13T10:36:10.365Z,43.30
2022-12-13T10:41:25.403Z,43.30
2022-12-13T10:46:40.362Z,43.20
2022-12-13T10:51:55.356Z,43.20
2022-12-13T10:57:11.771Z,43.20
2022-12-13T11:02:27.801Z,43.20
2022-12-13T11:07:43.446Z,43.00
2022-12-13T11:12:58.426Z,43.10
2022-12-13T11:18:13.754Z,42.90
2022-12-13T11:23:30.441Z,42.90
2022-12-13T11:28:45.753Z,42.90
2022-12-13T11:34:01.471Z,42.90
2022-12-13T11:39:16.381Z,42.90
2022-12-13T11:44:31.355Z,42.90
2022-12-13T11:49:46.548Z,42.80
2022-12-13T11:55:01.403Z,42.80
2022-12-13T12:00:16.367Z,42.80
2022-12-13T12:05:56.092Z,42.80
2022-12-13T12:11:11.410Z,42.80
2022-12-13T12:16:26.516Z,42.80
2022-12-13T12:27:22.644Z,42.70
2022-12-13T12:32:41.256Z,42.80
2022-12-13T12:37:56.450Z,42.70
2022-12-13T12:43:15.885Z,42.70
2022-12-13T12:54:07.720Z,42.60
2022-12-13T12:59:23.151Z,42.50
2022-12-13T13:04:38.714Z,42.50
2022-12-13T13:09:55.032Z,42.50
2022-12-13T13:15:10.417Z,42.50
2022-12-13T13:20:25.488Z,42.40
2022-12-13T13:26:00.445Z,42.30
2022-12-13T13:31:15.394Z,42.30
2022-12-13T13:36:30.355Z,42.30
2022-12-13T13:41:46.374Z,42.30
2022-12-13T13:47:01.438Z,42.30
2022-12-13T13:52:25.032Z,42.30
2022-12-13T13:58:08.393Z,42.30
2022-12-13T14:03:29.312Z,42.30
2022-12-13T14:08:48.409Z,42.30
2022-12-13T14:14:03.433Z,42.40
2022-12-13T14:19:18.428Z,42.30
2022-12-13T14:24:33.357Z,42.40
2022-12-13T14:29:58.202Z,42.30
2022-12-13T14:35:25.603Z,42.10
2022-12-13T14:40:42.477Z,42.70
2022-12-13T14:45:57.944Z,41.80
2022-12-13T14:51:13.763Z,41.60
2022-12-13T14:56:29.466Z,41.40
2022-12-13T15:01:44.370Z,41.20
2022-12-13T15:06:59.740Z,41.10
2022-12-13T15:12:24.662Z,41.10
2022-12-13T15:17:41.493Z,41.10
2022-12-13T15:23:00.751Z,41.20
2022-12-13T15:28:22.163Z,41.20
2022-12-13T15:33:48.128Z,41.30
2022-12-13T15:39:04.380Z,41.40
2022-12-13T15:44:19.459Z,41.40
2022-12-13T15:49:34.672Z,41.30
2022-12-13T15:54:50.206Z,42.00
2022-12-13T16:00:05.451Z,41.30
2022-12-13T16:05:23.391Z,41.20
2022-12-13T16:10:38.453Z,41.20
2022-12-13T16:15:53.438Z,41.10
2022-12-13T16:21:15.433Z,41.10
2022-12-13T16:26:30.181Z,41.30
2022-12-13T16:31:45.538Z,41.10
2022-12-13T16:37:00.484Z,41.20
2022-12-13T16:42:15.206Z,41.30
2022-12-13T16:47:43.155Z,41.30
2022-12-13T16:53:01.198Z,41.50
2022-12-13T16:58:19.486Z,41.60
2022-12-13T17:03:34.439Z,41.80
2022-12-13T17:08:49.462Z,42.10
2022-12-13T17:14:04.781Z,42.30
2022-12-13T17:19:20.183Z,42.40
2022-12-13T17:24:35.386Z,42.60
2022-12-13T17:29:50.413Z,42.80
2022-12-13T17:35:05.422Z,43.00
2022-12-13T17:40:20.428Z,43.10
2022-12-13T17:45:36.793Z,43.20
2022-12-13T17:50:52.207Z,43.20
2022-12-13T17:56:07.927Z,43.20
2022-12-13T18:01:23.470Z,43.20
2022-12-13T18:06:38.418Z,43.20
2022-12-13T18:11:53.527Z,43.40
2022-12-13T18:17:08.752Z,43.50
2022-12-13T18:22:24.423Z,45.10
2022-12-13T18:27:39.597Z,46.00
2022-12-13T18:32:54.467Z,45.60
2022-12-13T18:38:09.491Z,45.30
2022-12-13T18:43:24.195Z,45.20
2022-12-13T18:48:39.279Z,45.10
2022-12-13T18:53:54.430Z,45.00
2022-12-13T18:59:09.199Z,45.00
2022-12-13T19:04:24.958Z,44.90
2022-12-13T19:09:40.765Z,44.80
2022-12-13T19:14:56.450Z,45.00
2022-12-13T19:20:11.244Z,45.30
2022-12-13T19:25:26.205Z,45.10
2022-12-13T19:30:41.446Z,45.00
2022-12-13T19:35:56.496Z,45.00
2022-12-13T19:41:12.995Z,44.90
2022-12-13T19:46:28.553Z,44.80
2022-12-13T19:51:43.789Z,44.80
2022-12-13T19:57:06.900Z,44.80
2022-12-13T20:02:24.917Z,44.80
2022-12-13T20:07:41.636Z,44.70
2022-12-13T20:12:58.749Z,44.70
2022-12-13T20:18:14.508Z,43.90
2022-12-13T20:23:29.791Z,44.50
2022-12-13T20:28:45.526Z,45.00
2022-12-13T20:34:00.767Z,45.40
2022-12-13T20:39:16.512Z,45.50
2022-12-13T20:44:31.735Z,45.40
2022-12-13T20:49:48.296Z,45.50
2022-12-13T20:55:05.473Z,45.50
2022-12-13T21:00:20.622Z,45.40
2022-12-13T21:05:36.953Z,45.30
2022-12-13T21:10:52.831Z,45.10
2022-12-13T21:16:07.769Z,45.00
2022-12-13T21:21:23.503Z,45.20
2022-12-13T21:26:38.464Z,45.10
2022-12-13T21:31:53.468Z,45.10
2022-12-13T21:37:08.666Z,45.30
2022-12-13T21:42:24.864Z,45.10
2022-12-13T21:47:40.487Z,45.20
2022-12-13T21:52:55.697Z,45.10
2022-12-13T21:58:11.764Z,45.00
2022-12-13T22:03:27.491Z,44.90
2022-12-13T22:08:42.417Z,44.80
2022-12-13T22:13:57.848Z,44.80
2022-12-13T22:19:13.427Z,44.60
2022-12-13T22:24:28.429Z,44.50
2022-12-13T22:29:43.449Z,44.40
2022-12-13T22:34:58.441Z,44.40
2022-12-13T22:40:13.527Z,44.80
2022-12-13T22:45:28.506Z,44.90
2022-12-13T22:50:43.555Z,45.00
2022-12-13T22:55:58.765Z,45.10
2022-12-13T23:01:14.805Z,45.10
2022-12-13T23:06:30.236Z,45.10
2022-12-13T23:11:45.453Z,45.20
2022-12-13T23:17:00.802Z,45.30
2022-12-13T23:22:16.729Z,45.20
2022-12-13T23:27:32.552Z,45.00
2022-12-13T23:32:47.680Z,44.90
2022-12-13T23:38:03.412Z,44.90
2022-12-13T23:43:18.204Z,44.80
2022-12-13T23:48:33.925Z,44.90
2022-12-13T23:53:49.437Z,45.00
2022-12-13T23:59:04.487Z,45.00
